Tropical Cyclones
[Index]
Main Index Home Page Stock Weather Photos Extreme Storms Discussion Storm News and Storm Chasing Reports Tropical Cyclones / Hurricanes / Typhoons Weather Data and Links Wild Fires / Bushfires Weather Observation Techniques Weather Picture Catalogue Tornado Pictures and Reports Stock Video Footage and DVDs for sale
Season 1981-1982 Tropical Cyclone IAN Track Map
Season 1981-1982 Summaries: [BoM-AU] [JTWC-AU] [JTWC-SIO] [JTWC-SPAC] [JTWC-SH]
<<- Previous TC | JTWC 1981-1982 Season | Next TC ->>

click for intensity scale information  Lat/long Grid: Show Hide

 Date Labels: Show Hide

Joint Typhoon Warning Centre Cyclone Data

Name: IAN

26 Feb 1982 18:00 UTC to 07 Mar 1982 06:00 UTC

    date/time    lat    long     hPa   cat  kts
1982-02-26 18   16.6   112.3                  25          
1982-02-27 00   16.9   111.5                  25          
1982-02-27 06   17.0   111.2                  30          
1982-02-27 12   16.7   111.3                  30          
1982-02-27 18   16.4   111.6                  35          
1982-02-28 00   16.7   111.9                  35          
1982-02-28 06   17.2   112.3                  35          
1982-02-28 12   18.2   113.2                  35          
1982-02-28 18   19.0   114.5            1     40          
1982-03-01 00   19.2   116.0            1     40          
1982-03-01 06   19.1   117.5            1     40          
1982-03-01 12   19.0   118.7            1     40          
1982-03-01 18   18.7   119.8                  35          
1982-03-02 00   18.2   120.7                  35          
1982-03-02 06   17.8   121.4                  30          
1982-03-02 12   17.5   121.9                  30          
1982-03-02 18   17.2   122.2                  30          
1982-03-03 00   16.9   122.1                  30          
1982-03-03 06   16.7   121.9                  35          
1982-03-03 12   16.7   121.6                  35          
1982-03-03 18   17.0   121.1            1     40          
1982-03-04 00   17.5   120.3            1     45          
1982-03-04 06   17.9   119.5            1     50          
1982-03-04 12   18.3   118.7            2     55          
1982-03-04 18   18.7   117.9            2     60          
1982-03-05 00   19.1   116.9            2     65          
1982-03-05 06   19.6   115.9            2     65          
1982-03-05 12   20.0   115.0            2     60          
1982-03-05 18   20.5   114.3            1     50          
1982-03-06 00   21.2   113.7            1     45          
1982-03-06 06   22.1   113.5            1     40          
1982-03-06 12   22.8   113.6            1     40          
1982-03-06 18   23.5   113.8                  35          
1982-03-07 00   24.3   114.1                  30          
1982-03-07 06   25.1   114.6                  25          
Winds are 1-min average.

Tropical cyclone tracks developed by Michael Bath using data from the Joint Typhoon Warning Centre Best Tracks and Google Maps.


[Australian Severe Weather index] [Copyright Notice] [Email Contacts] [Search This Site] [Privacy Policy]
Document: tropical_cyclone_ian.htm Updated: 18 September 2016